createdAt,value
2023-02-02T00:01:30.525Z,5.90
2023-02-02T00:03:57.938Z,5.80
2023-02-02T00:06:26.955Z,5.80
2023-02-02T00:08:57.696Z,5.90
2023-02-02T00:11:25.729Z,5.80
2023-02-02T00:13:53.070Z,5.80
2023-02-02T00:16:29.296Z,5.80
2023-02-02T00:19:21.548Z,5.70
2023-02-02T00:21:49.135Z,5.70
2023-02-02T00:24:20.830Z,5.70
2023-02-02T00:26:55.899Z,5.60
2023-02-02T00:29:27.259Z,5.70
2023-02-02T00:31:54.722Z,5.60
2023-02-02T00:34:23.026Z,5.60
2023-02-02T00:36:51.058Z,5.60
2023-02-02T00:39:22.469Z,5.60
2023-02-02T00:41:50.112Z,5.60
2023-02-02T00:44:35.572Z,5.60
2023-02-02T00:47:03.528Z,5.50
2023-02-02T00:49:31.243Z,5.50
2023-02-02T00:51:59.069Z,5.50
2023-02-02T00:54:26.918Z,5.40
2023-02-02T00:56:54.084Z,5.50
2023-02-02T00:59:21.158Z,5.40
2023-02-02T01:01:48.392Z,5.40
2023-02-02T01:04:15.522Z,5.40
2023-02-02T01:06:42.977Z,5.40
2023-02-02T01:09:10.341Z,5.40
2023-02-02T01:11:37.638Z,5.40
2023-02-02T01:14:05.775Z,5.40
2023-02-02T01:16:33.789Z,5.30
2023-02-02T01:19:01.508Z,5.30
2023-02-02T01:21:29.085Z,5.30
2023-02-02T01:23:56.973Z,5.40
2023-02-02T01:26:24.095Z,5.30
2023-02-02T01:28:51.124Z,5.20
2023-02-02T01:31:21.084Z,5.20
2023-02-02T01:33:49.816Z,5.10
2023-02-02T01:36:23.352Z,5.10
2023-02-02T01:38:50.834Z,5.10
2023-02-02T01:41:24.190Z,5.00
2023-02-02T01:43:59.726Z,5.00
2023-02-02T01:46:35.685Z,4.90
2023-02-02T01:49:18.373Z,4.80
2023-02-02T01:51:54.315Z,4.80
2023-02-02T01:54:39.850Z,4.80
2023-02-02T01:57:15.218Z,4.70
2023-02-02T01:59:44.529Z,4.70
2023-02-02T02:02:12.752Z,4.60
2023-02-02T02:04:42.538Z,4.60
2023-02-02T02:07:10.384Z,4.60
2023-02-02T02:09:37.889Z,4.60
2023-02-02T02:12:15.449Z,4.50
2023-02-02T02:15:08.279Z,4.50
2023-02-02T02:18:01.578Z,4.40
2023-02-02T02:21:33.554Z,4.30
2023-02-02T02:24:47.566Z,4.40
2023-02-02T02:28:02.038Z,4.30
2023-02-02T02:30:55.090Z,4.30
2023-02-02T02:33:48.257Z,4.30
2023-02-02T02:36:53.340Z,4.20
2023-02-02T02:39:39.720Z,4.20
2023-02-02T02:42:20.378Z,4.10
2023-02-02T02:44:50.830Z,4.10
2023-02-02T02:47:20.135Z,4.00
2023-02-02T02:49:49.264Z,4.00
2023-02-02T02:52:16.796Z,3.90
2023-02-02T02:54:54.124Z,3.90
2023-02-02T02:58:02.629Z,3.90
2023-02-02T03:00:58.973Z,3.90
2023-02-02T03:03:44.190Z,4.00
2023-02-02T03:06:14.986Z,4.10
2023-02-02T03:09:16.825Z,3.90
2023-02-02T03:11:44.210Z,3.90
2023-02-02T03:14:11.441Z,3.90
2023-02-02T03:16:39.228Z,4.10
2023-02-02T03:19:08.274Z,4.00
2023-02-02T03:21:35.525Z,4.00
2023-02-02T03:24:02.887Z,4.00
2023-02-02T03:26:30.466Z,4.10
2023-02-02T03:28:57.838Z,4.10
2023-02-02T03:31:27.512Z,4.10
2023-02-02T03:33:55.929Z,4.10
2023-02-02T03:36:23.548Z,4.20
2023-02-02T03:38:50.764Z,4.20
2023-02-02T03:41:18.265Z,4.20
2023-02-02T03:43:45.491Z,4.20
2023-02-02T03:46:12.724Z,4.20
2023-02-02T03:48:39.967Z,4.30
2023-02-02T03:51:13.829Z,4.30
2023-02-02T03:53:47.549Z,4.30
2023-02-02T03:56:16.024Z,4.30
2023-02-02T03:58:43.168Z,4.30
2023-02-02T04:01:14.826Z,4.30
2023-02-02T04:03:42.316Z,4.30
2023-02-02T04:06:09.493Z,4.30
2023-02-02T04:08:36.648Z,4.30
2023-02-02T04:11:03.829Z,4.30
2023-02-02T04:13:31.130Z,4.30
2023-02-02T04:16:00.118Z,4.30
2023-02-02T04:18:28.772Z,4.40
2023-02-02T04:20:58.873Z,4.40
2023-02-02T04:23:27.886Z,4.50
2023-02-02T04:25:55.536Z,4.50
2023-02-02T04:28:23.872Z,4.50
2023-02-02T04:30:52.540Z,4.50
2023-02-02T04:33:21.590Z,4.50
2023-02-02T04:35:48.728Z,4.50
2023-02-02T04:38:16.044Z,4.50
2023-02-02T04:40:45.758Z,4.50
2023-02-02T04:43:13.415Z,4.50
2023-02-02T04:45:42.254Z,4.60
2023-02-02T04:48:10.054Z,4.60
2023-02-02T04:50:37.344Z,4.60
2023-02-02T04:53:05.193Z,4.80
2023-02-02T04:55:37.932Z,4.70
2023-02-02T04:58:06.134Z,4.70
2023-02-02T05:00:33.679Z,4.70
2023-02-02T05:03:01.572Z,4.70
2023-02-02T05:05:28.837Z,4.70
2023-02-02T05:07:55.955Z,4.70
2023-02-02T05:10:23.212Z,4.70
2023-02-02T05:12:54.503Z,4.80
2023-02-02T05:15:22.923Z,4.80
2023-02-02T05:17:50.512Z,4.80
2023-02-02T05:20:18.132Z,4.90
2023-02-02T05:22:48.879Z,4.80
2023-02-02T05:25:16.866Z,4.80
2023-02-02T05:27:45.959Z,4.80
2023-02-02T05:30:14.567Z,4.80
2023-02-02T05:32:41.876Z,4.80
2023-02-02T05:35:10.518Z,4.80
2023-02-02T05:37:38.030Z,4.70
2023-02-02T05:40:06.181Z,4.80
2023-02-02T05:42:33.511Z,4.70
2023-02-02T05:45:01.163Z,4.60
2023-02-02T05:47:28.668Z,4.60
2023-02-02T05:49:56.774Z,4.60
2023-02-02T05:52:25.709Z,4.60
2023-02-02T05:54:53.043Z,4.50
2023-02-02T05:57:20.315Z,4.50
2023-02-02T05:59:47.452Z,4.50
2023-02-02T06:02:14.584Z,4.50
2023-02-02T06:04:41.646Z,4.60
2023-02-02T06:07:08.855Z,4.60
2023-02-02T06:09:36.006Z,4.60
2023-02-02T06:12:03.828Z,4.60
2023-02-02T06:14:31.204Z,4.70
2023-02-02T06:16:58.407Z,4.60
2023-02-02T06:19:25.750Z,4.70
2023-02-02T06:21:53.172Z,4.70
2023-02-02T06:24:20.291Z,4.70
2023-02-02T06:26:47.625Z,4.70
2023-02-02T06:29:14.877Z,4.70
2023-02-02T06:31:42.240Z,4.80
2023-02-02T06:34:14.509Z,4.80
2023-02-02T06:36:42.324Z,4.80
2023-02-02T06:39:09.746Z,4.90
2023-02-02T06:41:37.296Z,4.90
2023-02-02T06:44:04.504Z,4.90
2023-02-02T06:46:31.968Z,5.00
2023-02-02T06:48:59.725Z,5.00
2023-02-02T06:51:27.138Z,5.00
2023-02-02T06:53:54.736Z,5.00
2023-02-02T06:56:22.940Z,5.00
2023-02-02T06:58:50.170Z,5.00
2023-02-02T07:01:17.522Z,5.10
2023-02-02T07:03:50.045Z,5.10
2023-02-02T07:06:21.116Z,5.10
2023-02-02T07:09:01.527Z,5.10
2023-02-02T07:11:35.599Z,5.10
2023-02-02T07:14:06.364Z,5.10
2023-02-02T07:16:33.772Z,5.10
2023-02-02T07:19:01.223Z,5.10
2023-02-02T07:21:30.036Z,5.10
2023-02-02T07:23:58.080Z,5.10
2023-02-02T07:26:26.006Z,5.10
2023-02-02T07:28:53.252Z,5.10
2023-02-02T07:31:26.775Z,5.20
2023-02-02T07:33:54.487Z,5.10
2023-02-02T07:36:24.240Z,5.20
2023-02-02T07:38:54.388Z,5.20
2023-02-02T07:41:22.482Z,5.20
2023-02-02T07:43:50.109Z,5.20
2023-02-02T07:46:18.620Z,5.20
2023-02-02T07:48:46.213Z,5.20
2023-02-02T07:51:17.483Z,5.20
2023-02-02T07:53:47.421Z,5.10
2023-02-02T07:56:25.086Z,5.10
2023-02-02T07:58:53.823Z,5.10
2023-02-02T08:01:23.108Z,5.10
2023-02-02T08:03:51.083Z,5.10
2023-02-02T08:06:28.722Z,5.20
2023-02-02T08:08:56.033Z,5.20
2023-02-02T08:11:24.966Z,5.20
2023-02-02T08:13:55.822Z,5.20
2023-02-02T08:16:27.071Z,5.30
2023-02-02T08:18:55.028Z,5.20
2023-02-02T08:21:22.658Z,5.20
2023-02-02T08:23:49.968Z,5.20
2023-02-02T08:26:18.712Z,5.10
2023-02-02T08:28:49.072Z,5.10
2023-02-02T08:31:24.416Z,5.00
2023-02-02T08:33:54.026Z,5.00
2023-02-02T08:36:23.590Z,4.90
2023-02-02T08:38:51.890Z,4.80
2023-02-02T08:41:23.806Z,4.80
2023-02-02T08:43:51.873Z,4.90
2023-02-02T08:46:21.068Z,4.90
2023-02-02T08:48:48.625Z,5.00
2023-02-02T08:51:19.177Z,5.10
2023-02-02T08:53:46.780Z,5.00
2023-02-02T08:56:17.910Z,4.90
2023-02-02T08:58:52.976Z,5.00
2023-02-02T09:01:23.764Z,5.00
2023-02-02T09:04:06.999Z,5.10
2023-02-02T09:06:38.356Z,5.20
2023-02-02T09:09:08.339Z,5.20
2023-02-02T09:11:36.832Z,5.30
2023-02-02T09:14:06.384Z,5.30
2023-02-02T09:16:35.314Z,5.20
2023-02-02T09:19:02.892Z,5.10
2023-02-02T09:21:30.037Z,4.90
2023-02-02T09:23:57.263Z,5.00
2023-02-02T09:26:29.595Z,4.90
2023-02-02T09:29:03.610Z,4.90
2023-02-02T09:31:36.741Z,4.90
2023-02-02T09:34:10.929Z,4.80
2023-02-02T09:36:39.486Z,4.70
2023-02-02T09:39:07.561Z,4.60
2023-02-02T09:41:37.749Z,4.50
2023-02-02T09:44:32.972Z,4.40
2023-02-02T09:47:19.808Z,4.40
2023-02-02T09:50:37.855Z,4.30
2023-02-02T09:53:28.936Z,4.30
2023-02-02T09:56:00.718Z,4.30
2023-02-02T09:58:49.017Z,4.30
2023-02-02T10:01:25.669Z,4.30
2023-02-02T10:04:07.720Z,4.30
2023-02-02T10:06:45.594Z,4.30
2023-02-02T10:09:47.063Z,4.30
2023-02-02T10:12:38.062Z,4.30
2023-02-02T10:15:35.800Z,4.40
2023-02-02T10:18:20.607Z,4.50
2023-02-02T10:20:54.699Z,4.70
2023-02-02T10:23:27.796Z,4.90
2023-02-02T10:25:57.041Z,5.00
2023-02-02T10:28:44.255Z,5.10
2023-02-02T10:32:00.445Z,5.20
2023-02-02T10:34:44.857Z,5.30
2023-02-02T10:37:27.997Z,5.30
2023-02-02T10:40:34.249Z,5.30
2023-02-02T10:43:46.788Z,5.50
2023-02-02T10:46:24.897Z,5.60
2023-02-02T10:49:35.934Z,5.60
2023-02-02T10:52:15.706Z,5.70
2023-02-02T10:55:07.729Z,5.80
2023-02-02T10:57:43.976Z,5.60
2023-02-02T11:00:39.970Z,5.50
2023-02-02T11:03:12.105Z,5.60
2023-02-02T11:05:58.219Z,5.70
2023-02-02T11:08:43.413Z,5.90
2023-02-02T11:11:35.302Z,6.00
2023-02-02T11:14:08.553Z,6.20
2023-02-02T11:16:44.644Z,6.20
2023-02-02T11:19:18.006Z,6.20
2023-02-02T11:22:25.735Z,6.10
2023-02-02T11:24:54.137Z,6.20
2023-02-02T11:27:31.282Z,6.30
2023-02-02T11:30:01.415Z,6.40
2023-02-02T11:32:33.074Z,6.40
2023-02-02T11:35:23.416Z,6.40
2023-02-02T11:38:13.256Z,6.40
2023-02-02T11:40:44.419Z,6.40
2023-02-02T11:43:21.735Z,6.40
2023-02-02T11:46:03.559Z,6.50
2023-02-02T11:48:36.016Z,6.80
2023-02-02T11:51:05.591Z,7.20
2023-02-02T11:53:37.025Z,7.20
2023-02-02T11:56:26.293Z,7.20
2023-02-02T11:58:56.547Z,7.30
2023-02-02T12:01:25.754Z,7.30
2023-02-02T12:04:15.918Z,7.40
2023-02-02T12:06:43.512Z,7.60
2023-02-02T12:09:19.643Z,7.80
2023-02-02T12:12:18.476Z,8.20
2023-02-02T12:15:16.907Z,9.00
2023-02-02T12:17:45.348Z,9.60
2023-02-02T12:20:44.190Z,9.80
2023-02-02T12:23:35.523Z,10.00
2023-02-02T12:26:19.659Z,10.00
2023-02-02T12:29:05.487Z,10.10
2023-02-02T12:32:14.511Z,11.00
2023-02-02T12:35:10.491Z,11.90
2023-02-02T12:38:07.593Z,11.90
2023-02-02T12:41:15.281Z,13.60
2023-02-02T12:43:46.350Z,14.20
2023-02-02T12:47:14.447Z,14.00
2023-02-02T12:50:15.769Z,13.80
2023-02-02T12:53:27.948Z,14.10
2023-02-02T12:56:13.539Z,13.20
2023-02-02T12:59:04.893Z,13.00
2023-02-02T13:02:26.073Z,12.60
2023-02-02T13:05:30.192Z,12.40
2023-02-02T13:08:14.972Z,13.10
2023-02-02T13:10:51.659Z,14.50
2023-02-02T13:13:27.251Z,15.50
2023-02-02T13:16:11.960Z,16.90
2023-02-02T13:19:10.240Z,18.30
2023-02-02T13:21:39.844Z,18.30
2023-02-02T13:24:12.483Z,17.00
2023-02-02T13:26:44.056Z,16.50
2023-02-02T13:29:11.278Z,16.30
2023-02-02T13:31:55.225Z,16.10
2023-02-02T13:34:43.687Z,15.50
2023-02-02T13:37:30.134Z,15.70
2023-02-02T13:40:20.342Z,16.00
2023-02-02T13:43:11.698Z,15.60
2023-02-02T13:45:57.544Z,14.20
2023-02-02T13:49:10.939Z,12.60
2023-02-02T13:52:37.617Z,10.70
2023-02-02T13:55:26.174Z,9.50
2023-02-02T14:00:52.961Z,11.40
2023-02-02T14:03:38.894Z,13.60
2023-02-02T14:06:20.330Z,13.90
2023-02-02T14:08:59.451Z,15.20
2023-02-02T14:11:37.278Z,14.60
2023-02-02T14:14:32.473Z,12.50
2023-02-02T14:17:06.494Z,11.90
2023-02-02T14:19:33.568Z,12.20
2023-02-02T14:22:09.809Z,13.00
2023-02-02T14:24:37.030Z,13.60
2023-02-02T14:27:10.396Z,13.90
2023-02-02T14:29:59.543Z,13.70
2023-02-02T14:32:29.570Z,12.80
2023-02-02T14:35:26.489Z,12.20
2023-02-02T14:38:14.544Z,11.80
2023-02-02T14:41:15.127Z,11.20
2023-02-02T14:43:50.919Z,10.80
2023-02-02T14:46:34.695Z,9.80
2023-02-02T14:49:01.919Z,10.80
2023-02-02T14:51:32.757Z,10.80
2023-02-02T14:54:03.425Z,9.70
2023-02-02T14:56:49.765Z,8.70
2023-02-02T14:59:23.192Z,7.90
2023-02-02T15:02:03.183Z,7.50
2023-02-02T15:04:30.822Z,7.10
2023-02-02T15:07:23.876Z,6.70
2023-02-02T15:09:56.557Z,6.30
2023-02-02T15:12:58.878Z,6.10
2023-02-02T15:15:30.103Z,5.90
2023-02-02T15:18:25.045Z,5.60
2023-02-02T15:20:56.633Z,5.50
2023-02-02T15:23:31.678Z,5.40
2023-02-02T15:26:24.175Z,5.30
2023-02-02T15:28:51.426Z,5.30
2023-02-02T15:31:47.043Z,5.30
2023-02-02T15:34:52.856Z,5.30
2023-02-02T15:37:26.116Z,5.20
2023-02-02T15:39:57.211Z,5.20
2023-02-02T15:42:55.081Z,5.10
2023-02-02T15:45:28.416Z,5.00
2023-02-02T15:47:59.833Z,5.00
2023-02-02T15:50:27.496Z,4.80
2023-02-02T15:52:55.895Z,4.80
2023-02-02T15:55:36.065Z,4.70
2023-02-02T15:58:20.327Z,4.60
2023-02-02T16:00:57.719Z,4.50
2023-02-02T16:03:33.766Z,4.40
2023-02-02T16:06:01.020Z,4.30
2023-02-02T16:08:35.490Z,4.30
2023-02-02T16:11:15.930Z,4.20
2023-02-02T16:14:05.798Z,4.10
2023-02-02T16:16:39.605Z,4.00
2023-02-02T16:19:20.962Z,3.90
2023-02-02T16:21:50.767Z,3.60
2023-02-02T16:24:25.379Z,3.40
2023-02-02T16:26:54.581Z,3.30
2023-02-02T16:29:22.580Z,3.10
2023-02-02T16:31:50.661Z,3.00
2023-02-02T16:34:39.768Z,3.00
2023-02-02T16:37:18.144Z,2.90
2023-02-02T16:39:45.729Z,2.90
2023-02-02T16:42:31.764Z,2.90
2023-02-02T16:45:01.059Z,2.80
2023-02-02T16:47:28.287Z,2.80
2023-02-02T16:50:28.228Z,2.80
2023-02-02T16:53:05.996Z,2.80
2023-02-02T16:55:49.256Z,2.70
2023-02-02T16:58:21.953Z,2.60
2023-02-02T17:01:13.537Z,2.60
2023-02-02T17:03:54.394Z,2.50
2023-02-02T17:06:49.945Z,2.50
2023-02-02T17:09:37.982Z,2.50
2023-02-02T17:12:32.560Z,2.60
2023-02-02T17:15:34.677Z,2.60
2023-02-02T17:18:04.328Z,2.50
2023-02-02T17:20:34.327Z,2.50
2023-02-02T17:23:11.455Z,2.40
2023-02-02T17:25:43.612Z,2.40
2023-02-02T17:28:19.687Z,2.30
2023-02-02T17:30:57.534Z,2.30
2023-02-02T17:33:27.201Z,2.30
2023-02-02T17:35:56.293Z,2.20
2023-02-02T17:38:25.524Z,2.20
2023-02-02T17:40:54.183Z,2.20
2023-02-02T17:43:22.308Z,2.20
2023-02-02T17:45:50.579Z,2.10
2023-02-02T17:48:18.290Z,2.00
2023-02-02T17:50:45.691Z,2.00
2023-02-02T17:53:16.045Z,2.00
2023-02-02T17:55:45.833Z,2.00
2023-02-02T17:58:19.062Z,2.00
2023-02-02T18:00:51.308Z,2.00
2023-02-02T18:03:24.047Z,2.80
2023-02-02T18:05:52.025Z,2.10
2023-02-02T18:08:23.059Z,2.00
2023-02-02T18:10:50.568Z,2.00
2023-02-02T18:13:20.316Z,2.10
2023-02-02T18:15:49.402Z,2.10
2023-02-02T18:18:17.312Z,2.00
2023-02-02T18:20:48.048Z,2.00
2023-02-02T18:23:16.775Z,2.00
2023-02-02T18:25:44.476Z,2.10
2023-02-02T18:28:14.672Z,2.00
2023-02-02T18:30:47.211Z,2.00
2023-02-02T18:33:17.815Z,2.00
2023-02-02T18:35:46.198Z,2.00
2023-02-02T18:38:14.579Z,2.00
2023-02-02T18:40:42.132Z,1.90
2023-02-02T18:43:09.551Z,1.90
2023-02-02T18:45:36.983Z,1.80
2023-02-02T18:48:04.440Z,1.80
2023-02-02T18:50:31.641Z,1.70
2023-02-02T18:52:58.970Z,1.70
2023-02-02T18:55:26.703Z,1.70
2023-02-02T18:57:54.128Z,1.60
2023-02-02T19:00:22.147Z,1.50
2023-02-02T19:02:50.120Z,1.50
2023-02-02T19:05:35.821Z,1.60
2023-02-02T19:08:04.077Z,1.50
2023-02-02T19:10:31.634Z,1.50
2023-02-02T19:13:24.112Z,1.40
2023-02-02T19:15:51.496Z,1.30
2023-02-02T19:18:22.586Z,1.30
2023-02-02T19:20:52.484Z,1.30
2023-02-02T19:23:23.642Z,1.30
2023-02-02T19:25:54.228Z,1.30
2023-02-02T19:28:22.980Z,1.40
2023-02-02T19:30:53.417Z,1.30
2023-02-02T19:33:21.759Z,1.30
2023-02-02T19:35:52.475Z,1.30
2023-02-02T19:38:20.713Z,1.40
2023-02-02T19:40:48.603Z,1.40
2023-02-02T19:43:29.952Z,1.30
2023-02-02T19:46:00.179Z,1.30
2023-02-02T19:48:35.316Z,1.30
2023-02-02T19:51:47.726Z,1.30
2023-02-02T19:54:23.848Z,1.20
2023-02-02T19:56:56.729Z,1.20
2023-02-02T19:59:35.161Z,1.20
2023-02-02T20:02:43.606Z,1.20
2023-02-02T20:05:41.804Z,1.20
2023-02-02T20:08:31.563Z,1.20
2023-02-02T20:11:06.909Z,1.20
2023-02-02T20:13:49.616Z,1.20
2023-02-02T20:16:22.790Z,1.30
2023-02-02T20:18:55.695Z,1.20
2023-02-02T20:21:36.903Z,1.30
2023-02-02T20:24:14.974Z,1.30
2023-02-02T20:26:42.302Z,1.30
2023-02-02T20:29:19.936Z,1.40
2023-02-02T20:31:50.229Z,1.40
2023-02-02T20:34:25.342Z,1.30
2023-02-02T20:36:58.572Z,1.30
2023-02-02T20:39:40.586Z,1.40
2023-02-02T20:42:08.060Z,1.40
2023-02-02T20:44:36.038Z,1.40
2023-02-02T20:47:04.388Z,1.40
2023-02-02T20:49:32.013Z,1.50
2023-02-02T20:52:03.718Z,1.40
2023-02-02T20:54:32.385Z,1.40
2023-02-02T20:57:00.236Z,1.40
2023-02-02T20:59:27.689Z,1.40
2023-02-02T21:01:55.427Z,1.50
2023-02-02T21:04:23.115Z,1.40
2023-02-02T21:06:50.490Z,1.50
2023-02-02T21:09:18.480Z,1.50
2023-02-02T21:11:45.862Z,1.50
2023-02-02T21:14:13.130Z,1.40
2023-02-02T21:16:40.371Z,1.40
2023-02-02T21:19:07.494Z,1.40
2023-02-02T21:21:34.820Z,1.40
2023-02-02T21:24:02.099Z,1.40
2023-02-02T21:26:30.654Z,1.40
2023-02-02T21:28:58.837Z,1.40
2023-02-02T21:31:27.205Z,1.30
2023-02-02T21:33:54.455Z,1.40
2023-02-02T21:36:36.030Z,1.40
2023-02-02T21:39:21.881Z,1.40
2023-02-02T21:41:50.945Z,1.40
2023-02-02T21:44:22.510Z,1.40
2023-02-02T21:46:51.767Z,1.50
2023-02-02T21:49:25.051Z,1.50
2023-02-02T21:51:55.992Z,1.50
2023-02-02T21:54:30.084Z,1.50
2023-02-02T21:56:57.388Z,1.60
2023-02-02T21:59:31.564Z,1.60
2023-02-02T22:01:59.362Z,1.70
2023-02-02T22:04:31.368Z,1.70
2023-02-02T22:07:15.330Z,1.80
2023-02-02T22:09:45.037Z,1.80
2023-02-02T22:12:23.128Z,1.80
2023-02-02T22:14:57.836Z,1.90
2023-02-02T22:17:37.667Z,1.90
2023-02-02T22:20:34.185Z,1.90
2023-02-02T22:23:03.474Z,1.80
2023-02-02T22:25:40.550Z,1.80
2023-02-02T22:28:21.404Z,1.70
2023-02-02T22:30:51.461Z,1.70
2023-02-02T22:33:19.635Z,1.90
2023-02-02T22:35:46.993Z,1.90
2023-02-02T22:38:24.323Z,1.80
2023-02-02T22:40:52.957Z,1.90
2023-02-02T22:43:21.760Z,1.90
2023-02-02T22:45:49.459Z,2.00
2023-02-02T22:48:17.163Z,2.00
2023-02-02T22:50:44.344Z,2.10
2023-02-02T22:53:13.840Z,2.10
2023-02-02T22:55:41.071Z,2.10
2023-02-02T22:58:08.282Z,2.10
2023-02-02T23:00:36.694Z,2.10
2023-02-02T23:03:04.226Z,2.10
2023-02-02T23:05:31.819Z,1.40
2023-02-02T23:07:59.014Z,2.10
2023-02-02T23:10:28.020Z,2.00
2023-02-02T23:12:58.316Z,2.00
2023-02-02T23:15:26.188Z,2.10
2023-02-02T23:17:53.993Z,2.10
2023-02-02T23:20:21.865Z,2.10
2023-02-02T23:22:49.714Z,2.20
2023-02-02T23:25:18.760Z,2.10
2023-02-02T23:27:45.986Z,2.10
2023-02-02T23:30:14.428Z,2.10
2023-02-02T23:32:41.962Z,2.10
2023-02-02T23:35:10.862Z,2.00
2023-02-02T23:37:38.532Z,2.00
2023-02-02T23:40:07.056Z,2.00
2023-02-02T23:42:34.304Z,2.00
2023-02-02T23:45:01.423Z,2.00
2023-02-02T23:47:28.649Z,2.00
2023-02-02T23:49:56.080Z,2.00
2023-02-02T23:52:23.704Z,2.00
2023-02-02T23:54:52.758Z,2.00
2023-02-02T23:57:20.498Z,2.00
2023-02-02T23:59:47.779Z,2.00
